Cleveland-Hopkins International, OH

3:32 PM EDT on March 26, 2015 (GMT -0400)
Cleveland-Hopkins International | Change Station
CLOSE
Current Station
Airport
Location: Cleveland,
Elevation: 804 ft
Nearby Weather Stations

Elev 804 ft 41.40 °N, 81.85 °W | Updated 41 minutes ago

Overcast
Overcast
36 °F
Feels Like 31 °F
N
6
Wind Variable Wind from NNW

Today
High -- | Low -- °F
--% Chance of Precip.
Yesterday
High -- | Low -- °F
Precip. -- in
7:21 AM 7:45 PM
Waxing Crescent, 45% visible
Pressure 29.88 in
Visibility 6.0 miles
Clouds Overcast 500 ft
Windchill 31 °F
Dew Point 33 °F
Humidity 89%
Rainfall 0.55 in
Snow Depth Not available.
UV 2 out of 12
Pollen .70 out of 12
Air Quality Not available.
Flu Activity Not available.
METAR KCLE 261851Z 33005KT 6SM BR OVC005 02/01 A2986 RMK AO2 RAE04SNB04E46 SLP116 P0000 T00220006

More Conditions Fewer Conditions

Pressure 29.88 in
Visibility 6.0 miles
Clouds Overcast 500 ft
Windchill 31 °F
Dew Point 33 °F
Humidity 89%
Rainfall 0.55 in
Snow Depth Not available.
UV 2 out of 12
Pollen .70 out of 12
Air Quality Not available.
Flu Activity Not available.
METAR KCLE 261851Z 33005KT 6SM BR OVC005 02/01 A2986 RMK AO2 RAE04SNB04E46 SLP116 P0000 T00220006

More Conditions Fewer Conditions

10-Day Weather Forecast

Almanac

Astronomy

Mar. 26, 2015 Rise Set
Actual Time
Civil Twilight
Nautical Twilight
Astronomical Twilight
Moon
Length of Visible Light
Length of Day
Tomorrow will be .
, % of the Moon is Illuminated

Today's Extremes

State Highs State Lows

Community

WunderPhotos

Upload Photos

1,808,607 photos uploaded!

WunderBlogs® & News

Nearby

Air Quality

  Air Quality AQ Index Pollutant
Not available.

Snow Depth

Station Depth Elevation

Earthquake Activity

City Distance Mag. Time & Date
Minimum magnitude displayed is 2.5.

Coastal Water Temperatures

Place Temperature

Stations

Nearby Weather Stations

Station Location Temp. Windchill Dew Point Humidity Wind Precip. Elev Updated Type